ITY1605 LIEA-LIML
Flight info
| Callsign | ITY1605 |
|---|---|
| Flight time | 0h 53m |
| Altitude | 34000 |
| Route | MINKA DCT POZZO DCT OLBEK DCT NORNI DCT UPDIN DCT SPEZI DCT IDONA |
| Aircraft | A320/M-SDE3FGHIRWY/LB1 |
Departure
| Time | 2026-05-09 16:14 |
|---|---|
| Airport | Alghero-Fertilia Airport (LIEA) |
Arrival
| Time | 2026-05-09 17:07 |
|---|---|
| Airport | Milano Linate Airport (LIML) |
| Time | Latitude | Longitude | Altitude | Speed | Heading |
|---|---|---|---|---|---|
| 2026-05-09 15:51 | 40.63128 | 8.29484 | 90 ft | 0 kts | 114° |
| 2026-05-09 16:05 | 40.63130 | 8.29477 | 92 ft | 4 kts | 115° |
| 2026-05-09 16:05 | 40.63144 | 8.29449 | 92 ft | 4 kts | 142° |
| 2026-05-09 16:06 | 40.63166 | 8.29437 | 92 ft | 4 kts | 196° |
| 2026-05-09 16:06 | 40.63172 | 8.29440 | 92 ft | 1 kts | 205° |
| 2026-05-09 16:08 | 40.63167 | 8.29437 | 93 ft | 2 kts | 205° |
| 2026-05-09 16:09 | 40.63152 | 8.29428 | 93 ft | 3 kts | 205° |
| 2026-05-09 16:09 | 40.63097 | 8.29394 | 94 ft | 18 kts | 204° |
| 2026-05-09 16:09 | 40.62968 | 8.29318 | 93 ft | 21 kts | 204° |
| 2026-05-09 16:09 | 40.62864 | 8.29214 | 91 ft | 20 kts | 250° |
| 2026-05-09 16:10 | 40.62796 | 8.29075 | 87 ft | 19 kts | 207° |
| 2026-05-09 16:10 | 40.62665 | 8.28997 | 85 ft | 23 kts | 204° |
| 2026-05-09 16:10 | 40.62508 | 8.28903 | 82 ft | 26 kts | 205° |
| 2026-05-09 16:10 | 40.62335 | 8.28799 | 82 ft | 28 kts | 204° |
| 2026-05-09 16:11 | 40.62156 | 8.28692 | 88 ft | 29 kts | 204° |
| 2026-05-09 16:11 | 40.62011 | 8.28604 | 84 ft | 16 kts | 204° |
| 2026-05-09 16:11 | 40.61948 | 8.28550 | 88 ft | 10 kts | 230° |
| 2026-05-09 16:11 | 40.61928 | 8.28470 | 83 ft | 7 kts | 271° |
| 2026-05-09 16:12 | 40.61931 | 8.28448 | 83 ft | 0 kts | 288° |
| 2026-05-09 16:12 | 40.61957 | 8.28405 | 85 ft | 11 kts | 323° |
| 2026-05-09 16:12 | 40.62016 | 8.28371 | 90 ft | 7 kts | 350° |
| 2026-05-09 16:13 | 40.62048 | 8.28378 | 90 ft | 0 kts | 24° |
| 2026-05-09 16:13 | 40.62066 | 8.28389 | 88 ft | 21 kts | 24° |
| 2026-05-09 16:13 | 40.62461 | 8.28628 | 82 ft | 99 kts | 25° |
| 2026-05-09 16:13 | 40.63272 | 8.29115 | 102 ft | 154 kts | 23° |
| 2026-05-09 16:14 | 40.64261 | 8.29705 | 691 ft | 155 kts | 28° |
| 2026-05-09 16:14 | 40.65252 | 8.30304 | 1360 ft | 162 kts | 29° |
| 2026-05-09 16:14 | 40.66343 | 8.30973 | 1744 ft | 184 kts | 28° |
| 2026-05-09 16:14 | 40.67563 | 8.31722 | 2069 ft | 208 kts | 28° |
| 2026-05-09 16:15 | 40.68953 | 8.32570 | 2459 ft | 233 kts | 28° |
| 2026-05-09 16:15 | 40.70502 | 8.33510 | 2999 ft | 256 kts | 28° |
| 2026-05-09 16:15 | 40.72153 | 8.34505 | 3800 ft | 266 kts | 27° |
| 2026-05-09 16:15 | 40.73868 | 8.35533 | 4639 ft | 275 kts | 27° |
| 2026-05-09 16:16 | 40.75639 | 8.36591 | 5501 ft | 283 kts | 26° |
| 2026-05-09 16:16 | 40.77384 | 8.37824 | 6357 ft | 285 kts | 37° |
| 2026-05-09 16:16 | 40.78850 | 8.39546 | 6805 ft | 288 kts | 52° |
| 2026-05-09 16:16 | 40.79940 | 8.41780 | 7569 ft | 293 kts | 68° |
| 2026-05-09 16:17 | 40.80665 | 8.44314 | 8377 ft | 299 kts | 75° |
| 2026-05-09 16:17 | 40.81350 | 8.46904 | 9184 ft | 306 kts | 75° |
| 2026-05-09 16:17 | 40.82066 | 8.49588 | 9974 ft | 314 kts | 74° |
| 2026-05-09 16:17 | 40.82819 | 8.52407 | 10345 ft | 337 kts | 73° |
| 2026-05-09 16:18 | 40.83627 | 8.55416 | 10739 ft | 356 kts | 73° |
| 2026-05-09 16:18 | 40.84420 | 8.58547 | 11417 ft | 362 kts | 78° |
| 2026-05-09 16:18 | 40.84817 | 8.61834 | 12122 ft | 365 kts | 90° |
| 2026-05-09 16:18 | 40.84708 | 8.65188 | 12837 ft | 366 kts | 103° |
| 2026-05-09 16:19 | 40.84254 | 8.68514 | 13585 ft | 371 kts | 105° |
| 2026-05-09 16:19 | 40.83783 | 8.71885 | 14240 ft | 376 kts | 105° |
| 2026-05-09 16:19 | 40.83313 | 8.75273 | 14859 ft | 383 kts | 104° |
| 2026-05-09 16:19 | 40.83107 | 8.78816 | 15481 ft | 395 kts | 89° |
| 2026-05-09 16:20 | 40.83743 | 8.82380 | 16138 ft | 406 kts | 68° |
| 2026-05-09 16:20 | 40.85044 | 8.85710 | 16816 ft | 411 kts | 63° |
| 2026-05-09 16:20 | 40.86425 | 8.89027 | 17468 ft | 415 kts | 62° |
| 2026-05-09 16:20 | 40.87838 | 8.92386 | 18087 ft | 420 kts | 62° |
| 2026-05-09 16:21 | 40.89264 | 8.95774 | 18662 ft | 424 kts | 62° |
| 2026-05-09 16:21 | 40.90697 | 8.99201 | 19234 ft | 429 kts | 63° |
| 2026-05-09 16:21 | 40.92142 | 9.02669 | 19802 ft | 433 kts | 63° |
| 2026-05-09 16:21 | 40.93597 | 9.06178 | 20363 ft | 437 kts | 63° |
| 2026-05-09 16:22 | 40.95045 | 9.09682 | 20906 ft | 441 kts | 63° |
| 2026-05-09 16:22 | 40.96519 | 9.13264 | 21473 ft | 445 kts | 63° |
| 2026-05-09 16:22 | 40.98004 | 9.16877 | 22034 ft | 449 kts | 63° |
| 2026-05-09 16:22 | 40.99503 | 9.20523 | 22613 ft | 453 kts | 63° |
| 2026-05-09 16:23 | 41.01013 | 9.24197 | 23194 ft | 456 kts | 63° |
| 2026-05-09 16:23 | 41.02535 | 9.27901 | 23685 ft | 459 kts | 63° |
| 2026-05-09 16:23 | 41.04061 | 9.31624 | 24119 ft | 462 kts | 63° |
| 2026-05-09 16:23 | 41.05598 | 9.35384 | 24555 ft | 465 kts | 63° |
| 2026-05-09 16:24 | 41.07120 | 9.39113 | 25022 ft | 467 kts | 63° |
| 2026-05-09 16:24 | 41.08673 | 9.42914 | 25450 ft | 470 kts | 63° |
| 2026-05-09 16:24 | 41.10232 | 9.46732 | 25847 ft | 472 kts | 63° |
| 2026-05-09 16:24 | 41.11790 | 9.50555 | 26281 ft | 473 kts | 62° |
| 2026-05-09 16:25 | 41.13357 | 9.54405 | 26715 ft | 475 kts | 62° |
| 2026-05-09 16:25 | 41.14929 | 9.58274 | 27104 ft | 478 kts | 63° |
| 2026-05-09 16:25 | 41.16505 | 9.62159 | 27508 ft | 480 kts | 63° |
| 2026-05-09 16:25 | 41.18093 | 9.66076 | 27877 ft | 483 kts | 63° |
| 2026-05-09 16:26 | 41.19685 | 9.70010 | 28239 ft | 485 kts | 63° |
| 2026-05-09 16:26 | 41.21313 | 9.73948 | 28588 ft | 488 kts | 59° |
| 2026-05-09 16:26 | 41.23335 | 9.77587 | 28913 ft | 491 kts | 47° |
| 2026-05-09 16:26 | 41.25787 | 9.80653 | 29253 ft | 491 kts | 36° |
| 2026-05-09 16:27 | 41.28645 | 9.83120 | 29585 ft | 490 kts | 25° |
| 2026-05-09 16:27 | 41.31770 | 9.84869 | 29891 ft | 488 kts | 13° |
| 2026-05-09 16:27 | 41.35071 | 9.85860 | 30170 ft | 484 kts | 2° |
| 2026-05-09 16:27 | 41.38413 | 9.86163 | 30432 ft | 483 kts | 358° |
| 2026-05-09 16:28 | 41.41776 | 9.86361 | 30681 ft | 485 kts | 358° |
| 2026-05-09 16:28 | 41.45153 | 9.86556 | 30933 ft | 486 kts | 358° |
| 2026-05-09 16:28 | 41.48543 | 9.86754 | 31178 ft | 488 kts | 358° |
| 2026-05-09 16:28 | 41.51942 | 9.86957 | 31431 ft | 489 kts | 358° |
| 2026-05-09 16:29 | 41.55292 | 9.87163 | 31763 ft | 488 kts | 358° |
| 2026-05-09 16:29 | 41.58676 | 9.87373 | 32119 ft | 487 kts | 358° |
| 2026-05-09 16:29 | 41.62057 | 9.87584 | 32483 ft | 485 kts | 358° |
| 2026-05-09 16:29 | 41.65420 | 9.87794 | 32831 ft | 484 kts | 357° |
| 2026-05-09 16:30 | 41.68780 | 9.88004 | 33165 ft | 483 kts | 357° |
| 2026-05-09 16:30 | 41.72125 | 9.88209 | 33499 ft | 482 kts | 357° |
| 2026-05-09 16:30 | 41.75475 | 9.88411 | 33838 ft | 481 kts | 357° |
| 2026-05-09 16:30 | 41.78820 | 9.88612 | 33996 ft | 479 kts | 357° |
| 2026-05-09 16:31 | 41.85373 | 9.89013 | 34006 ft | 472 kts | 357° |
| 2026-05-09 16:31 | 41.91929 | 9.89419 | 34004 ft | 471 kts | 357° |
| 2026-05-09 16:32 | 41.97373 | 9.89752 | 34006 ft | 471 kts | 357° |
| 2026-05-09 16:32 | 42.05027 | 9.90210 | 34006 ft | 470 kts | 356° |
| 2026-05-09 16:33 | 42.11562 | 9.90610 | 34008 ft | 470 kts | 356° |
| 2026-05-09 16:33 | 42.18049 | 9.91022 | 34008 ft | 470 kts | 356° |
| 2026-05-09 16:34 | 42.24575 | 9.91438 | 34015 ft | 469 kts | 356° |
| 2026-05-09 16:34 | 42.31098 | 9.91850 | 34012 ft | 469 kts | 356° |
| 2026-05-09 16:35 | 42.37629 | 9.92255 | 34012 ft | 469 kts | 356° |
| 2026-05-09 16:35 | 42.44110 | 9.92658 | 34017 ft | 469 kts | 356° |
| 2026-05-09 16:36 | 42.57142 | 9.93476 | 34015 ft | 469 kts | 356° |
| 2026-05-09 16:37 | 42.63655 | 9.93893 | 34025 ft | 468 kts | 356° |
| 2026-05-09 16:37 | 42.70156 | 9.94301 | 34018 ft | 467 kts | 356° |
| 2026-05-09 16:38 | 42.76603 | 9.94704 | 34011 ft | 467 kts | 356° |
| 2026-05-09 16:38 | 42.83091 | 9.95112 | 34016 ft | 467 kts | 356° |
| 2026-05-09 16:39 | 42.89588 | 9.95525 | 34015 ft | 467 kts | 356° |
| 2026-05-09 16:39 | 42.96071 | 9.95932 | 34010 ft | 467 kts | 356° |
| 2026-05-09 16:40 | 43.02565 | 9.96346 | 34023 ft | 467 kts | 356° |
| 2026-05-09 16:42 | 43.28350 | 9.96617 | 34020 ft | 452 kts | 338° |
| 2026-05-09 16:42 | 43.34016 | 9.93284 | 34016 ft | 439 kts | 324° |
| 2026-05-09 16:43 | 43.39347 | 9.89181 | 34007 ft | 439 kts | 324° |
| 2026-05-09 16:43 | 43.44641 | 9.85101 | 34011 ft | 440 kts | 323° |
| 2026-05-09 16:44 | 43.47311 | 9.83037 | 33818 ft | 441 kts | 323° |
| 2026-05-09 16:44 | 43.49987 | 9.80968 | 33550 ft | 442 kts | 323° |
| 2026-05-09 16:44 | 43.52676 | 9.78888 | 33283 ft | 444 kts | 323° |
| 2026-05-09 16:44 | 43.55368 | 9.76801 | 33018 ft | 445 kts | 323° |
| 2026-05-09 16:45 | 43.58072 | 9.74702 | 32755 ft | 445 kts | 323° |
| 2026-05-09 16:45 | 43.60772 | 9.72599 | 32496 ft | 446 kts | 323° |
| 2026-05-09 16:45 | 43.63438 | 9.70525 | 32259 ft | 446 kts | 323° |
| 2026-05-09 16:45 | 43.66138 | 9.68428 | 32022 ft | 444 kts | 323° |
| 2026-05-09 16:46 | 43.68823 | 9.66345 | 31770 ft | 443 kts | 324° |
| 2026-05-09 16:46 | 43.71506 | 9.64258 | 31523 ft | 441 kts | 324° |
| 2026-05-09 16:46 | 43.74161 | 9.62190 | 31060 ft | 437 kts | 324° |
| 2026-05-09 16:46 | 43.76795 | 9.60133 | 30443 ft | 434 kts | 324° |
| 2026-05-09 16:47 | 43.79416 | 9.58078 | 29782 ft | 431 kts | 324° |
| 2026-05-09 16:47 | 43.82015 | 9.56041 | 29183 ft | 426 kts | 324° |
| 2026-05-09 16:47 | 43.84585 | 9.54026 | 28594 ft | 422 kts | 324° |
| 2026-05-09 16:47 | 43.87092 | 9.52066 | 28020 ft | 417 kts | 325° |
| 2026-05-09 16:48 | 43.89606 | 9.50094 | 27451 ft | 413 kts | 325° |
| 2026-05-09 16:48 | 43.92098 | 9.48140 | 26867 ft | 410 kts | 325° |
| 2026-05-09 16:48 | 43.94565 | 9.46202 | 26336 ft | 406 kts | 326° |
| 2026-05-09 16:48 | 43.97068 | 9.44392 | 25774 ft | 407 kts | 333° |
| 2026-05-09 16:49 | 43.99760 | 9.43178 | 25242 ft | 409 kts | 344° |
| 2026-05-09 16:49 | 44.02584 | 9.42649 | 24703 ft | 410 kts | 353° |
| 2026-05-09 16:49 | 44.05423 | 9.42378 | 24180 ft | 408 kts | 353° |
| 2026-05-09 16:50 | 44.11012 | 9.41820 | 23110 ft | 403 kts | 353° |
| 2026-05-09 16:50 | 44.13796 | 9.41532 | 22612 ft | 399 kts | 353° |
| 2026-05-09 16:50 | 44.16547 | 9.41249 | 22117 ft | 395 kts | 353° |
| 2026-05-09 16:50 | 44.19279 | 9.40967 | 21614 ft | 392 kts | 353° |
| 2026-05-09 16:51 | 44.21984 | 9.40685 | 21119 ft | 388 kts | 353° |
| 2026-05-09 16:51 | 44.24670 | 9.40407 | 20614 ft | 386 kts | 353° |
| 2026-05-09 16:51 | 44.27342 | 9.40132 | 20107 ft | 384 kts | 353° |
| 2026-05-09 16:51 | 44.30001 | 9.39855 | 19582 ft | 382 kts | 353° |
| 2026-05-09 16:52 | 44.32614 | 9.39583 | 19069 ft | 381 kts | 353° |
| 2026-05-09 16:52 | 44.35252 | 9.39309 | 18546 ft | 380 kts | 353° |
| 2026-05-09 16:52 | 44.37882 | 9.39038 | 17990 ft | 378 kts | 353° |
| 2026-05-09 16:52 | 44.40500 | 9.38773 | 17471 ft | 376 kts | 354° |
| 2026-05-09 16:53 | 44.43092 | 9.38510 | 16969 ft | 372 kts | 354° |
| 2026-05-09 16:53 | 44.45642 | 9.38249 | 16806 ft | 360 kts | 354° |
| 2026-05-09 16:53 | 44.48098 | 9.37996 | 16673 ft | 349 kts | 354° |
| 2026-05-09 16:53 | 44.50480 | 9.37751 | 16545 ft | 337 kts | 354° |
| 2026-05-09 16:54 | 44.52785 | 9.37502 | 16366 ft | 328 kts | 353° |
| 2026-05-09 16:54 | 44.55035 | 9.37247 | 15767 ft | 323 kts | 353° |
| 2026-05-09 16:54 | 44.57240 | 9.37003 | 15457 ft | 319 kts | 354° |
| 2026-05-09 16:54 | 44.59445 | 9.36769 | 15219 ft | 317 kts | 354° |
| 2026-05-09 16:55 | 44.61638 | 9.36544 | 14991 ft | 315 kts | 354° |
| 2026-05-09 16:55 | 44.63820 | 9.36324 | 14747 ft | 316 kts | 354° |
| 2026-05-09 16:55 | 44.66016 | 9.36101 | 14508 ft | 315 kts | 354° |
| 2026-05-09 16:55 | 44.68194 | 9.35875 | 14226 ft | 313 kts | 354° |
| 2026-05-09 16:56 | 44.70362 | 9.35646 | 13815 ft | 313 kts | 354° |
| 2026-05-09 16:56 | 44.72512 | 9.35418 | 13365 ft | 314 kts | 355° |
| 2026-05-09 16:56 | 44.74696 | 9.35186 | 12925 ft | 314 kts | 355° |
| 2026-05-09 16:56 | 44.76872 | 9.34958 | 12528 ft | 312 kts | 355° |
| 2026-05-09 16:57 | 44.79039 | 9.34731 | 12121 ft | 311 kts | 355° |
| 2026-05-09 16:57 | 44.81200 | 9.34504 | 11718 ft | 311 kts | 355° |
| 2026-05-09 16:57 | 44.83336 | 9.34281 | 11433 ft | 306 kts | 355° |
| 2026-05-09 16:57 | 44.85461 | 9.34058 | 11034 ft | 305 kts | 355° |
| 2026-05-09 16:58 | 44.87560 | 9.33839 | 10402 ft | 301 kts | 355° |
| 2026-05-09 16:58 | 44.89632 | 9.33622 | 9832 ft | 295 kts | 355° |
| 2026-05-09 16:58 | 44.91603 | 9.33414 | 9566 ft | 277 kts | 355° |
| 2026-05-09 16:58 | 44.93453 | 9.33219 | 9493 ft | 259 kts | 355° |
| 2026-05-09 16:59 | 44.95220 | 9.33032 | 9388 ft | 251 kts | 355° |
| 2026-05-09 16:59 | 44.96957 | 9.32848 | 9290 ft | 250 kts | 355° |
| 2026-05-09 16:59 | 44.98692 | 9.32666 | 9093 ft | 252 kts | 355° |
| 2026-05-09 16:59 | 45.00446 | 9.32478 | 8670 ft | 254 kts | 355° |
| 2026-05-09 17:00 | 45.02209 | 9.32288 | 8286 ft | 254 kts | 355° |
| 2026-05-09 17:00 | 45.03975 | 9.32096 | 7916 ft | 254 kts | 355° |
| 2026-05-09 17:00 | 45.05714 | 9.31906 | 7537 ft | 254 kts | 355° |
| 2026-05-09 17:00 | 45.07474 | 9.31712 | 7166 ft | 254 kts | 355° |
| 2026-05-09 17:01 | 45.09233 | 9.31519 | 6782 ft | 254 kts | 355° |
| 2026-05-09 17:01 | 45.10993 | 9.31326 | 6404 ft | 254 kts | 355° |
| 2026-05-09 17:01 | 45.12752 | 9.31134 | 6021 ft | 253 kts | 355° |
| 2026-05-09 17:01 | 45.14507 | 9.30938 | 5652 ft | 251 kts | 355° |
| 2026-05-09 17:02 | 45.16200 | 9.30744 | 5515 ft | 240 kts | 355° |
| 2026-05-09 17:02 | 45.17848 | 9.30565 | 5249 ft | 235 kts | 356° |
| 2026-05-09 17:02 | 45.19448 | 9.30394 | 4957 ft | 233 kts | 356° |
| 2026-05-09 17:02 | 45.21055 | 9.30223 | 4654 ft | 231 kts | 355° |
| 2026-05-09 17:03 | 45.22644 | 9.30053 | 4324 ft | 227 kts | 355° |
| 2026-05-09 17:04 | 45.32701 | 9.28976 | 2452 ft | 205 kts | 355° |
| 2026-05-09 17:05 | 45.34107 | 9.28825 | 2206 ft | 199 kts | 356° |
| 2026-05-09 17:05 | 45.35445 | 9.28682 | 1927 ft | 187 kts | 356° |
| 2026-05-09 17:05 | 45.36695 | 9.28547 | 1703 ft | 171 kts | 356° |
| 2026-05-09 17:05 | 45.37832 | 9.28425 | 1478 ft | 157 kts | 356° |
| 2026-05-09 17:06 | 45.38882 | 9.28311 | 1245 ft | 147 kts | 356° |
| 2026-05-09 17:06 | 45.39893 | 9.28204 | 1076 ft | 145 kts | 356° |
| 2026-05-09 17:06 | 45.40887 | 9.28098 | 880 ft | 143 kts | 355° |
| 2026-05-09 17:06 | 45.41863 | 9.27994 | 697 ft | 142 kts | 355° |
| 2026-05-09 17:07 | 45.42842 | 9.27888 | 513 ft | 141 kts | 355° |
| 2026-05-09 17:07 | 45.43168 | 9.27852 | 450 ft | 140 kts | 355° |
| 2026-05-09 17:07 | 45.44633 | 9.27693 | 363 ft | 97 kts | 354° |
| 2026-05-09 17:07 | 45.45120 | 9.27643 | 358 ft | 47 kts | 355° |
| 2026-05-09 17:08 | 45.45346 | 9.27684 | 358 ft | 28 kts | 26° |
| 2026-05-09 17:08 | 45.45458 | 9.27825 | 361 ft | 8 kts | 85° |
| 2026-05-09 17:08 | 45.45459 | 9.27911 | 360 ft | 11 kts | 90° |
| 2026-05-09 17:09 | 45.45499 | 9.27980 | 360 ft | 8 kts | 30° |
| 2026-05-09 17:09 | 45.45511 | 9.28042 | 360 ft | 6 kts | 90° |
| 2026-05-09 17:09 | 45.45511 | 9.28070 | 360 ft | 2 kts | 90° |
| 2026-05-09 17:09 | 45.45511 | 9.28073 | 360 ft | 0 kts | 90° |